Warning: Javascript must be enabled to use all the features on this page!


Page Loading - Please Wait...

* We've detected you're using a mobile device. Find our Next Generation Station Page here.
Click to hideNews Bulletins

Peak Streamflow for the Nation

USGS 09260000 LITTLE SNAKE RIVER NEAR LILY, CO

Moffat County, Colorado
Hydrologic Unit Code 14050003
Latitude  40°32'56.46", Longitude 108°25'27.56" NAD83
Drainage area 4,034  square miles
Gage datum 5,685 feet above NGVD29
Output formats
Table
Graph
Tab-separated file
peakfq (watstore) format
Reselect output format
Water
Year
Date Gage
Height
(feet)
Stream-
flow
(cfs)
1922 1922-05-28   5,6501
1923 1923-05-29 7.40 5,350
1924 1924-05-05 5.35 3,790
1925 1925-05-17 4.80 3,060
1926 1926-05-27 10.50 14,200
1927 1927-05-18 8.05 7,200
1928 1928-05-12   6,5002
1929 1929-05-28 9.12 7,530
1930 1930-08-15 6.55 3,590
1931 1931-05-17   2,9901
1932 1932-05-25 8.50 7,1002
1933 1933-05-31 8.50 6,570
1934 1934-04-24 4.56 996
1935 1935-05-29 6.80 3,780
1936 1936-08-03 5.926 6,590
1937 1937-05-20 5.65 5,820
1938 1938-05-20 6.91 8,590
1939 1939-05-03 4.50 3,670
1940 1940-05-14 4.43 3,520
1941 1941-08-17 6.83 8,740
1942 1942-05-29 5.78 5,760
1943 1943-06-02 8.27 11,000
1944 1944-05-22 5.93 6,200
1945 1945-06-07 6.05 5,680
1946 1946-05-01 4.22 3,310
1947 1947-06-22 5.92 5,910
1948 1948-05-22 5.15 4,200
1949 1949-05-18 5.95 5,550
1950 1950-05-19 5.52 4,620
1951 1951-05-30 4.63 3,220
1952 1952-04-09 7.82 9,040
1953 1953-05-21 5.02 3,950
1954 1954-05-23 4.18 2,540
1955 1955-05-09 4.22 2,720
1956 1956-05-23 6.00 5,730
1957 1957-05-10 6.65 6,870
1958 1958-05-27 5.66 5,100
1959 1959-09-27 4.34 2,780
1960 1960-05-15 4.652 3,240
1961 1961-05-13 3.69 1,900
1962 1962-03-28 8.302 10,200
1963 1963-05-12 4.21 2,660
1964 1964-05-21 5.46 4,830
1965 1965-05-15 6.33 6,470
1966 1966-03-15 7.08 7,720
1967 1967-05-27 4.95 3,780
1968 1968-06-01 5.52 4,850
1969 1969-04-26 4.862 3,750
1970 1970-06-12 6.98 7,540
1971 1971-05-31 7.87 9,720
1972 1972-06-10 4.572 3,280
1973 1973-05-23 6.10 5,860
1974 1974-05-12 6.782 7,480
1975 1975-05-21 6.33 6,360
1976 1976-05-23 5.66 4,410
1977 1977-07-26 4.82 2,510
1978 1978-05-18 5.95 5,240
1979 1979-05-31 5.95 4,990
1980 1980-05-13 6.32 6,170
1981 1981-05-24 5.62 4,560
1982 1982-05-06 6.15 5,540
1983 1983-05-30 7.25 7,630
1984 1984-05-18 9.85 16,700
1985 1985-05-06 6.20 5,710
1986 1986-06-10 6.652 6,650
1987 1987-04-20 4.53 2,540
1988 1988-05-20 5.63 4,870
1989 1989-04-08 4.35 2,690
1990 1990-06-13 4.78 2,920
1991 1991-05-12 4.76 3,200
1992 1992-05-11 3.87 1,990
1993 1993-05-15 6.31 5,950
1994 1994-04-25 4.52 2,840
1995 1995-06-07 6.44 6,220
1996 1996-05-19 6.10 5,530
1997 1997-06-04 5.87 5,080
1998 1998-06-18 5.74 4,730
1999 1999-05-25 6.83 6,480
2000 2000-05-27 5.40 4,200
2001 2001-05-03 4.80 3,220
2002 2002-04-18 3.00 1,120
2003 2003-06-01 5.91 4,380
2004 2004-05-13 3.39 1,380
2005 2005-05-23 5.85 4,360
2006 2006-05-24 5.72 4,640
2007 2007-05-16 4.05 2,410
2008 2008-05-24 7.36 8,160
2009 2009-05-27 7.89 6,510
2010 2010-06-15 7.79 6,370
2011 2011-06-09 9.80 10,300
2012 2012-04-29 3.70 1,540
2013 2013-05-18 4.52 2,230
2014 2014-05-31 6.52 4,660
2015 2015-05-25 6.65 4,840
2016 2016-05-09 7.78 6,530
2017 2017-05-15 5.44 3,270
2018 2018-05-12 4.34 2,080
2019 2019-06-09 6.19 4,200
2020 2020-05-05 6.93 5,240
2021 2021-05-18 3.42 1,290
?
  Peak Gage-Height Qualification Codes.
?
  Peak Streamflow Qualification Codes.